createdAt,value
2023-04-16T00:00:47.958Z,30.34
2023-04-16T00:01:47.953Z,30.30
2023-04-16T00:02:48.072Z,30.24
2023-04-16T00:03:48.336Z,30.19
2023-04-16T00:04:47.912Z,30.19
2023-04-16T00:05:47.864Z,30.19
2023-04-16T00:06:47.828Z,30.17
2023-04-16T00:07:47.835Z,30.15
2023-04-16T00:08:47.808Z,30.26
2023-04-16T00:09:47.825Z,30.15
2023-04-16T00:10:47.812Z,30.10
2023-04-16T00:11:47.804Z,30.24
2023-04-16T00:12:47.798Z,30.04
2023-04-16T00:13:47.789Z,29.95
2023-04-16T00:14:47.770Z,30.06
2023-04-16T00:15:47.751Z,29.97
2023-04-16T00:16:47.842Z,30.08
2023-04-16T00:17:47.821Z,30.19
2023-04-16T00:18:47.766Z,30.26
2023-04-16T00:19:47.724Z,30.39
2023-04-16T00:20:47.689Z,30.50
2023-04-16T00:21:47.694Z,30.34
2023-04-16T00:22:47.681Z,30.64
2023-04-16T00:23:47.659Z,30.52
2023-04-16T00:24:47.654Z,30.59
2023-04-16T00:25:47.666Z,30.48
2023-04-16T00:26:47.680Z,30.48
2023-04-16T00:27:47.648Z,30.43
2023-04-16T00:28:47.625Z,30.39
2023-04-16T00:29:47.597Z,30.61
2023-04-16T00:30:47.640Z,30.59
2023-04-16T00:31:47.600Z,30.30
2023-04-16T00:32:47.677Z,30.46
2023-04-16T00:33:47.598Z,30.48
2023-04-16T00:34:47.556Z,30.57
2023-04-16T00:35:47.535Z,30.70
2023-04-16T00:36:47.545Z,30.61
2023-04-16T00:37:47.516Z,30.64
2023-04-16T00:38:47.550Z,30.57
2023-04-16T00:39:47.512Z,30.61
2023-04-16T00:40:47.512Z,30.75
2023-04-16T00:41:47.516Z,30.59
2023-04-16T00:42:47.478Z,30.41
2023-04-16T00:43:47.478Z,30.39
2023-04-16T00:44:47.484Z,30.46
2023-04-16T00:45:47.503Z,30.61
2023-04-16T00:46:47.599Z,30.34
2023-04-16T00:47:47.497Z,30.32
2023-04-16T00:48:47.424Z,30.21
2023-04-16T00:49:47.447Z,30.17
2023-04-16T00:50:47.394Z,30.32
2023-04-16T00:51:47.409Z,30.24
2023-04-16T00:52:47.375Z,30.26
2023-04-16T00:53:47.372Z,30.10
2023-04-16T00:54:47.405Z,29.82
2023-04-16T00:55:47.390Z,29.80
2023-04-16T00:56:47.440Z,29.89
2023-04-16T00:57:47.365Z,29.78
2023-04-16T00:58:47.309Z,29.70
2023-04-16T00:59:47.313Z,29.74
2023-04-16T01:02:04.967Z,31.26
2023-04-16T01:03:06.162Z,30.68
2023-04-16T01:04:05.928Z,30.48
2023-04-16T01:05:05.846Z,30.55
2023-04-16T01:06:05.836Z,30.37
2023-04-16T01:07:05.871Z,30.34
2023-04-16T01:08:05.821Z,30.34
2023-04-16T01:09:05.825Z,30.34
2023-04-16T01:10:05.799Z,30.48
2023-04-16T01:11:05.788Z,30.34
2023-04-16T01:12:05.794Z,30.48
2023-04-16T01:13:05.769Z,30.41
2023-04-16T01:14:05.788Z,30.55
2023-04-16T01:15:05.761Z,30.34
2023-04-16T01:16:05.764Z,30.30
2023-04-16T01:17:05.731Z,30.32
2023-04-16T01:18:05.779Z,30.17
2023-04-16T01:19:05.743Z,30.24
2023-04-16T01:20:05.725Z,30.26
2023-04-16T01:21:05.697Z,30.34
2023-04-16T01:22:05.705Z,30.39
2023-04-16T01:23:05.693Z,30.28
2023-04-16T01:24:05.676Z,30.34
2023-04-16T01:25:05.656Z,30.39
2023-04-16T01:26:05.708Z,30.39
2023-04-16T01:27:05.632Z,30.59
2023-04-16T01:28:05.638Z,30.43
2023-04-16T01:29:05.648Z,30.48
2023-04-16T01:30:05.619Z,30.52
2023-04-16T01:31:05.666Z,30.52
2023-04-16T01:32:05.580Z,30.48
2023-04-16T01:33:05.587Z,30.24
2023-04-16T01:34:05.611Z,30.17
2023-04-16T01:35:05.583Z,30.15
2023-04-16T01:36:05.541Z,30.37
2023-04-16T01:37:05.550Z,30.13
2023-04-16T01:38:05.520Z,30.10
2023-04-16T01:39:05.542Z,30.15
2023-04-16T01:40:05.547Z,30.21
2023-04-16T01:41:05.551Z,30.21
2023-04-16T01:42:05.492Z,30.30
2023-04-16T01:43:05.475Z,30.34
2023-04-16T01:44:05.468Z,30.17
2023-04-16T01:45:05.452Z,30.10
2023-04-16T01:46:05.461Z,30.02
2023-04-16T01:47:05.503Z,30.02
2023-04-16T01:48:05.443Z,30.02
2023-04-16T01:49:05.440Z,30.04
2023-04-16T01:50:05.410Z,29.95
2023-04-16T01:51:05.408Z,29.97
2023-04-16T01:52:05.396Z,29.80
2023-04-16T01:53:05.388Z,29.65
2023-04-16T01:54:05.379Z,29.76
2023-04-16T01:55:05.391Z,29.80
2023-04-16T01:56:05.387Z,29.65
2023-04-16T01:57:05.373Z,29.76
2023-04-16T01:58:05.368Z,29.89
2023-04-16T01:59:05.328Z,29.87
2023-04-16T02:00:05.336Z,29.87
2023-04-16T02:01:05.348Z,29.80
2023-04-16T02:02:05.335Z,29.89
2023-04-16T02:03:05.411Z,29.78
2023-04-16T02:04:05.378Z,29.76
2023-04-16T02:05:05.261Z,29.63
2023-04-16T02:06:05.270Z,29.63
2023-04-16T02:07:05.264Z,29.57
2023-04-16T02:08:05.235Z,29.51
2023-04-16T02:09:05.222Z,29.74
2023-04-16T02:10:05.327Z,29.65
2023-04-16T02:11:05.194Z,29.59
2023-04-16T02:12:05.219Z,29.65
2023-04-16T02:13:05.199Z,29.59
2023-04-16T02:14:05.170Z,29.44
2023-04-16T02:15:05.169Z,29.32
2023-04-16T02:16:05.171Z,29.44
2023-04-16T02:17:05.177Z,29.44
2023-04-16T02:18:05.174Z,29.44
2023-04-16T02:19:05.114Z,29.40
2023-04-16T02:20:05.105Z,29.53
2023-04-16T02:21:05.199Z,29.42
2023-04-16T02:22:05.123Z,29.51
2023-04-16T02:23:05.080Z,29.53
2023-04-16T02:24:05.061Z,29.44
2023-04-16T02:25:05.070Z,29.40
2023-04-16T02:26:05.068Z,29.30
2023-04-16T02:27:05.407Z,29.36
2023-04-16T02:28:05.030Z,29.32
2023-04-16T02:29:05.045Z,29.42
2023-04-16T02:30:05.031Z,29.44
2023-04-16T02:31:05.023Z,29.38
2023-04-16T02:32:05.065Z,29.28
2023-04-16T02:33:04.992Z,29.13
2023-04-16T02:34:04.963Z,29.30
2023-04-16T02:35:04.962Z,29.38
2023-04-16T02:36:04.968Z,29.32
2023-04-16T02:37:04.948Z,29.24
2023-04-16T02:38:04.938Z,29.38
2023-04-16T02:39:04.976Z,29.38
2023-04-16T02:40:04.912Z,29.42
2023-04-16T02:41:04.926Z,29.34
2023-04-16T02:42:04.912Z,29.44
2023-04-16T02:43:04.906Z,29.28
2023-04-16T02:44:04.875Z,29.19
2023-04-16T02:45:04.886Z,29.28
2023-04-16T02:46:04.900Z,29.01
2023-04-16T02:47:04.840Z,28.97
2023-04-16T02:48:04.839Z,28.87
2023-04-16T02:49:04.842Z,28.71
2023-04-16T02:50:04.836Z,28.59
2023-04-16T02:51:04.809Z,28.48
2023-04-16T02:52:04.792Z,28.36
2023-04-16T02:53:04.787Z,28.34
2023-04-16T02:54:04.796Z,28.34
2023-04-16T02:55:04.782Z,28.34
2023-04-16T02:56:04.744Z,28.36
2023-04-16T02:57:04.837Z,28.40
2023-04-16T02:58:04.738Z,28.30
2023-04-16T02:59:04.743Z,28.17
2023-04-16T03:00:04.710Z,28.24
2023-04-16T03:01:04.838Z,28.23
2023-04-16T03:02:04.727Z,28.19
2023-04-16T03:03:04.709Z,28.11
2023-04-16T03:04:04.694Z,28.09
2023-04-16T03:05:04.663Z,28.02
2023-04-16T03:06:04.648Z,28.02
2023-04-16T03:07:04.707Z,28.09
2023-04-16T03:08:04.630Z,28.02
2023-04-16T03:09:04.622Z,27.87
2023-04-16T03:10:04.607Z,28.05
2023-04-16T03:11:04.616Z,27.83
2023-04-16T03:12:04.609Z,27.75
2023-04-16T03:13:04.591Z,27.68
2023-04-16T03:14:04.624Z,27.72
2023-04-16T03:15:04.600Z,27.61
2023-04-16T03:16:04.585Z,27.51
2023-04-16T03:17:04.544Z,27.53
2023-04-16T03:18:04.788Z,27.57
2023-04-16T03:19:04.536Z,27.61
2023-04-16T03:20:04.524Z,27.62
2023-04-16T03:21:04.518Z,27.59
2023-04-16T03:22:04.500Z,27.59
2023-04-16T03:23:04.498Z,27.59
2023-04-16T03:24:04.498Z,27.70
2023-04-16T03:25:04.480Z,27.68
2023-04-16T03:26:04.484Z,27.81
2023-04-16T03:27:04.458Z,27.92
2023-04-16T03:28:04.442Z,28.02
2023-04-16T03:29:04.427Z,28.07
2023-04-16T03:30:04.437Z,28.19
2023-04-16T03:31:04.655Z,28.21
2023-04-16T03:32:04.431Z,28.28
2023-04-16T03:33:04.396Z,28.40
2023-04-16T03:34:04.402Z,28.38
2023-04-16T03:35:04.379Z,28.50
2023-04-16T03:36:04.387Z,28.55
2023-04-16T03:37:04.408Z,28.57
2023-04-16T03:38:04.352Z,28.59
2023-04-16T03:39:04.346Z,28.69
2023-04-16T03:40:04.382Z,28.83
2023-04-16T03:41:04.316Z,28.85
2023-04-16T03:42:04.315Z,29.03
2023-04-16T03:43:04.330Z,29.26
2023-04-16T03:44:04.289Z,29.51
2023-04-16T03:45:04.296Z,29.59
2023-04-16T03:46:04.357Z,29.80
2023-04-16T03:47:04.251Z,30.00
2023-04-16T03:48:04.249Z,30.13
2023-04-16T03:49:04.333Z,30.24
2023-04-16T03:50:04.242Z,30.48
2023-04-16T03:51:04.209Z,30.59
2023-04-16T03:52:04.229Z,30.77
2023-04-16T03:53:04.301Z,30.86
2023-04-16T03:54:04.190Z,30.95
2023-04-16T03:55:04.184Z,31.07
2023-04-16T03:56:04.243Z,31.14
2023-04-16T03:57:04.168Z,31.26
2023-04-16T03:58:04.141Z,31.33
2023-04-16T03:59:04.149Z,31.45
2023-04-16T04:00:04.107Z,31.47
2023-04-16T04:01:04.135Z,31.49
2023-04-16T04:02:04.247Z,31.47
2023-04-16T04:03:04.385Z,31.45
2023-04-16T04:04:04.360Z,31.40
2023-04-16T04:05:04.202Z,31.49
2023-04-16T04:06:04.104Z,31.47
2023-04-16T04:07:04.215Z,31.57
2023-04-16T04:08:04.030Z,31.64
2023-04-16T04:09:04.034Z,31.54
2023-04-16T04:10:03.999Z,31.54
2023-04-16T04:11:03.966Z,31.66
2023-04-16T04:12:03.970Z,31.78
2023-04-16T04:13:03.947Z,31.66
2023-04-16T04:14:03.962Z,31.86
2023-04-16T04:15:03.925Z,31.88
2023-04-16T04:16:03.958Z,31.90
2023-04-16T04:17:03.909Z,32.00
2023-04-16T04:18:03.953Z,32.05
2023-04-16T04:19:03.892Z,32.08
2023-04-16T04:20:03.877Z,32.13
2023-04-16T04:21:03.886Z,32.28
2023-04-16T04:22:03.898Z,32.30
2023-04-16T04:23:03.858Z,32.43
2023-04-16T04:24:03.843Z,32.53
2023-04-16T04:25:03.836Z,32.43
2023-04-16T04:26:03.981Z,32.58
2023-04-16T04:27:03.824Z,32.43
2023-04-16T04:28:03.833Z,32.55
2023-04-16T04:29:03.860Z,32.38
2023-04-16T04:30:03.812Z,32.58
2023-04-16T04:31:03.782Z,32.48
2023-04-16T04:32:03.832Z,32.50
2023-04-16T04:33:03.829Z,32.58
2023-04-16T04:34:03.756Z,32.84
2023-04-16T04:35:03.820Z,32.84
2023-04-16T04:36:03.753Z,32.89
2023-04-16T04:37:03.773Z,33.04
2023-04-16T04:38:03.707Z,33.10
2023-04-16T04:39:03.755Z,33.34
2023-04-16T04:40:03.682Z,32.99
2023-04-16T04:41:03.794Z,33.10
2023-04-16T04:42:03.838Z,33.23
2023-04-16T04:43:03.649Z,33.31
2023-04-16T04:44:03.715Z,33.36
2023-04-16T04:45:03.656Z,33.58
2023-04-16T04:46:03.758Z,33.44
2023-04-16T04:47:03.605Z,33.44
2023-04-16T04:48:03.654Z,33.58
2023-04-16T04:49:03.593Z,33.55
2023-04-16T04:50:03.583Z,33.58
2023-04-16T04:51:05.027Z,33.58
2023-04-16T04:52:03.578Z,33.63
2023-04-16T04:53:03.555Z,33.82
2023-04-16T04:54:03.550Z,33.74
2023-04-16T04:55:03.540Z,33.77
2023-04-16T04:56:12.352Z,33.47
2023-04-16T04:57:03.573Z,33.58
2023-04-16T04:58:03.493Z,33.55
2023-04-16T04:59:03.489Z,33.44
2023-04-16T05:00:03.491Z,33.39
2023-04-16T05:01:03.587Z,33.23
2023-04-16T05:02:03.588Z,33.20
2023-04-16T05:03:03.555Z,33.36
2023-04-16T05:04:03.463Z,33.23
2023-04-16T05:05:03.490Z,33.36
2023-04-16T05:06:03.421Z,33.34
2023-04-16T05:07:03.429Z,33.88
2023-04-16T05:08:03.410Z,33.69
2023-04-16T05:09:03.394Z,34.04
2023-04-16T05:10:03.384Z,34.21
2023-04-16T05:11:03.387Z,34.35
2023-04-16T05:12:03.371Z,34.47
2023-04-16T05:13:03.375Z,34.53
2023-04-16T05:14:03.373Z,34.93
2023-04-16T05:15:03.349Z,34.93
2023-04-16T05:16:03.346Z,34.87
2023-04-16T05:17:03.490Z,34.93
2023-04-16T05:18:03.449Z,35.20
2023-04-16T05:19:03.322Z,35.23
2023-04-16T05:20:03.304Z,35.41
2023-04-16T05:21:03.303Z,35.47
2023-04-16T05:22:03.282Z,35.59
2023-04-16T05:23:03.279Z,35.59
2023-04-16T05:24:03.258Z,35.56
2023-04-16T05:25:03.289Z,35.87
2023-04-16T05:26:03.252Z,35.93
2023-04-16T05:27:03.227Z,35.90
2023-04-16T05:28:03.214Z,35.90
2023-04-16T05:29:03.227Z,36.18
2023-04-16T05:30:03.192Z,36.18
2023-04-16T05:31:03.292Z,36.08
2023-04-16T05:32:03.212Z,36.15
2023-04-16T05:33:03.170Z,36.15
2023-04-16T05:34:03.179Z,36.40
2023-04-16T05:35:03.161Z,36.37
2023-04-16T05:36:03.200Z,36.33
2023-04-16T05:37:03.151Z,36.21
2023-04-16T05:38:03.139Z,36.43
2023-04-16T05:39:03.108Z,36.18
2023-04-16T05:40:03.131Z,36.59
2023-04-16T05:41:03.079Z,36.40
2023-04-16T05:42:03.114Z,36.59
2023-04-16T05:43:03.070Z,36.85
2023-04-16T05:44:03.075Z,36.82
2023-04-16T05:45:03.050Z,37.01
2023-04-16T05:46:03.103Z,37.08
2023-04-16T05:47:03.028Z,37.25
2023-04-16T05:48:03.026Z,37.28
2023-04-16T05:49:02.990Z,37.35
2023-04-16T05:50:02.988Z,37.31
2023-04-16T05:51:02.995Z,37.51
2023-04-16T05:52:02.981Z,37.55
2023-04-16T05:53:02.971Z,37.79
2023-04-16T05:54:02.993Z,37.92
2023-04-16T05:55:02.953Z,37.82
2023-04-16T05:56:02.958Z,38.20
2023-04-16T05:57:02.926Z,37.96
2023-04-16T05:58:02.937Z,38.27
2023-04-16T05:59:02.949Z,38.52
2023-04-16T06:00:02.921Z,38.24
2023-04-16T06:01:02.884Z,38.31
2023-04-16T06:02:02.929Z,38.45
2023-04-16T06:03:03.101Z,38.34
2023-04-16T06:04:02.978Z,38.34
2023-04-16T06:05:02.861Z,38.20
2023-04-16T06:06:03.004Z,38.31
2023-04-16T06:07:02.823Z,38.49
2023-04-16T06:08:02.836Z,38.45
2023-04-16T06:09:02.813Z,38.34
2023-04-16T06:10:02.847Z,38.17
2023-04-16T06:11:02.827Z,38.42
2023-04-16T06:12:02.872Z,38.45
2023-04-16T06:13:02.773Z,38.45
2023-04-16T06:14:02.758Z,38.34
2023-04-16T06:15:02.749Z,38.70
2023-04-16T06:16:02.806Z,38.52
2023-04-16T06:17:02.739Z,38.85
2023-04-16T06:18:02.775Z,38.63
2023-04-16T06:19:02.724Z,38.77
2023-04-16T06:20:02.711Z,38.67
2023-04-16T06:21:02.734Z,38.92
2023-04-16T06:22:02.681Z,38.74
2023-04-16T06:23:02.672Z,38.70
2023-04-16T06:24:02.663Z,38.81
2023-04-16T06:25:02.657Z,39.25
2023-04-16T06:26:02.637Z,39.06
2023-04-16T06:27:02.647Z,39.40
2023-04-16T06:28:02.622Z,39.25
2023-04-16T06:29:02.610Z,39.51
2023-04-16T06:30:02.632Z,39.55
2023-04-16T06:31:02.607Z,39.58
2023-04-16T06:32:02.628Z,39.58
2023-04-16T06:33:02.660Z,39.62
2023-04-16T06:34:02.584Z,39.58
2023-04-16T06:35:02.554Z,39.93
2023-04-16T06:36:02.570Z,39.74
2023-04-16T06:37:02.532Z,40.28
2023-04-16T06:38:02.537Z,40.28
2023-04-16T06:39:02.527Z,40.12
2023-04-16T06:40:02.522Z,40.35
2023-04-16T06:41:02.499Z,40.59
2023-04-16T06:42:02.494Z,40.59
2023-04-16T06:43:02.481Z,40.51
2023-04-16T06:44:02.460Z,40.71
2023-04-16T06:45:02.482Z,40.67
2023-04-16T06:46:02.453Z,41.11
2023-04-16T06:47:02.541Z,41.23
2023-04-16T06:48:02.474Z,41.23
2023-04-16T06:49:02.423Z,41.40
2023-04-16T06:50:02.425Z,41.56
2023-04-16T06:51:02.401Z,41.81
2023-04-16T06:52:04.560Z,41.73
2023-04-16T06:53:02.381Z,41.65
2023-04-16T06:54:02.361Z,41.90
2023-04-16T06:55:02.377Z,41.81
2023-04-16T06:56:02.354Z,41.52
2023-04-16T06:57:02.345Z,41.27
2023-04-16T06:58:02.372Z,41.40
2023-04-16T06:59:02.310Z,41.23
2023-04-16T07:00:02.308Z,41.27
2023-04-16T07:01:02.302Z,40.75
2023-04-16T07:02:02.378Z,40.87
2023-04-16T07:03:02.575Z,40.71
2023-04-16T07:04:02.554Z,40.67
2023-04-16T07:05:02.309Z,40.63
2023-04-16T07:06:02.249Z,40.75
2023-04-16T07:07:02.273Z,40.83
2023-04-16T07:08:02.225Z,40.59
2023-04-16T07:09:02.238Z,40.91
2023-04-16T07:10:02.280Z,40.99
2023-04-16T07:11:02.295Z,41.35
2023-04-16T07:12:02.196Z,41.60
2023-04-16T07:13:02.264Z,41.73
2023-04-16T07:14:02.213Z,42.07
2023-04-16T07:15:02.228Z,41.98
2023-04-16T07:16:02.263Z,42.24
2023-04-16T07:17:02.212Z,42.37
2023-04-16T07:18:02.175Z,42.28
2023-04-16T07:19:02.193Z,42.02
2023-04-16T07:20:02.141Z,41.81
2023-04-16T07:21:02.112Z,42.02
2023-04-16T07:22:02.149Z,42.24
2023-04-16T07:23:02.156Z,42.45
2023-04-16T07:24:02.098Z,42.54
2023-04-16T07:25:02.175Z,43.02
2023-04-16T07:26:02.058Z,43.43
2023-04-16T07:27:02.046Z,43.70
2023-04-16T07:28:02.058Z,44.50
2023-04-16T07:29:02.052Z,45.22
2023-04-16T07:30:02.031Z,45.67
2023-04-16T07:31:02.004Z,46.07
2023-04-16T07:32:02.111Z,46.80
2023-04-16T07:33:02.065Z,46.87
2023-04-16T07:34:01.983Z,46.54
2023-04-16T07:35:01.949Z,46.17
2023-04-16T07:36:01.971Z,45.92
2023-04-16T07:37:02.014Z,45.47
2023-04-16T07:38:02.015Z,45.37
2023-04-16T07:39:01.949Z,45.37
2023-04-16T07:40:01.903Z,45.32
2023-04-16T07:41:01.952Z,45.72
2023-04-16T07:42:01.926Z,46.12
2023-04-16T07:43:01.895Z,46.38
2023-04-16T07:44:01.886Z,46.80
2023-04-16T07:45:01.856Z,46.98
2023-04-16T07:46:01.936Z,47.49
2023-04-16T07:47:03.482Z,47.76
2023-04-16T07:48:01.870Z,47.54
2023-04-16T07:49:01.823Z,47.41
2023-04-16T07:50:01.830Z,47.52
2023-04-16T07:51:01.832Z,47.71
2023-04-16T07:52:01.819Z,47.79
2023-04-16T07:53:01.792Z,48.09
2023-04-16T07:54:01.778Z,48.40
2023-04-16T07:55:01.817Z,48.43
2023-04-16T07:56:01.765Z,49.38
2023-04-16T07:57:01.759Z,49.91
2023-04-16T07:58:01.766Z,50.43
2023-04-16T07:59:14.372Z,50.74
2023-04-16T08:00:02.532Z,50.95
2023-04-16T08:01:01.739Z,51.17
2023-04-16T08:02:01.789Z,52.04
2023-04-16T08:03:01.830Z,53.10
2023-04-16T08:04:01.836Z,53.96
2023-04-16T08:05:01.691Z,53.82
2023-04-16T08:06:01.687Z,53.41
2023-04-16T08:07:01.667Z,53.48
2023-04-16T08:08:01.632Z,53.07
2023-04-16T08:09:01.633Z,53.51
2023-04-16T08:10:01.649Z,53.76
2023-04-16T08:11:01.626Z,54.14
2023-04-16T08:12:01.813Z,54.32
2023-04-16T08:13:01.585Z,54.46
2023-04-16T08:14:01.657Z,54.57
2023-04-16T08:15:01.581Z,54.25
2023-04-16T08:16:01.591Z,53.76
2023-04-16T08:17:01.823Z,53.07
2023-04-16T08:18:01.550Z,52.70
2023-04-16T08:19:01.625Z,53.27
2023-04-16T08:20:01.540Z,54.00
2023-04-16T08:21:01.593Z,55.62
2023-04-16T08:22:01.505Z,57.87
2023-04-16T08:23:01.599Z,58.94
2023-04-16T08:24:01.538Z,59.15
2023-04-16T08:25:01.498Z,58.65
2023-04-16T08:26:01.478Z,59.28
2023-04-16T08:27:11.535Z,59.96
2023-04-16T08:28:01.459Z,59.32
2023-04-16T08:29:01.508Z,59.02
2023-04-16T08:30:01.403Z,60.22
2023-04-16T08:31:01.445Z,59.66
2023-04-16T08:32:01.415Z,60.18
2023-04-16T08:33:01.494Z,60.09
2023-04-16T08:34:01.371Z,60.44
2023-04-16T08:35:01.402Z,61.06
2023-04-16T08:36:01.382Z,61.06
2023-04-16T08:37:01.350Z,60.39
2023-04-16T08:38:02.508Z,60.57
2023-04-16T08:39:01.352Z,60.75
2023-04-16T08:40:01.637Z,60.70
2023-04-16T08:41:01.473Z,60.31
2023-04-16T08:42:01.760Z,60.48
2023-04-16T08:43:01.314Z,61.01
2023-04-16T08:44:01.559Z,61.15
2023-04-16T08:45:01.440Z,60.66
2023-04-16T08:46:01.277Z,59.83
2023-04-16T08:47:01.441Z,58.85
2023-04-16T08:48:01.393Z,57.63
2023-04-16T08:49:01.274Z,56.65
2023-04-16T08:50:01.246Z,56.38
2023-04-16T08:51:01.260Z,55.37
2023-04-16T08:52:01.226Z,54.71
2023-04-16T08:53:01.205Z,54.10
2023-04-16T08:54:01.305Z,54.35
2023-04-16T08:55:01.248Z,55.44
2023-04-16T08:56:01.190Z,56.61
2023-04-16T08:57:01.230Z,57.63
2023-04-16T08:58:01.214Z,58.40
2023-04-16T08:59:02.160Z,59.49
2023-04-16T09:00:01.174Z,59.44
2023-04-16T09:01:01.174Z,61.10
2023-04-16T09:02:01.260Z,62.58
2023-04-16T09:03:01.310Z,63.97
2023-04-16T09:04:01.408Z,64.67
2023-04-16T09:05:01.181Z,65.07
2023-04-16T09:06:01.151Z,65.85
2023-04-16T09:07:03.365Z,66.96
2023-04-16T09:08:01.118Z,68.06
2023-04-16T09:09:01.186Z,68.73
2023-04-16T09:10:01.097Z,68.85
2023-04-16T09:11:01.126Z,69.13
2023-04-16T09:12:01.113Z,68.23
2023-04-16T09:13:01.070Z,67.62
2023-04-16T09:14:01.051Z,66.96
2023-04-16T09:15:01.083Z,66.59
2023-04-16T09:16:01.411Z,66.27
2023-04-16T09:17:01.202Z,67.34
2023-04-16T09:18:01.108Z,69.66
2023-04-16T09:19:01.016Z,71.39
2023-04-16T09:20:00.977Z,74.39
2023-04-16T09:21:00.938Z,76.03
2023-04-16T09:22:00.950Z,77.66
2023-04-16T09:23:00.966Z,80.13
2023-04-16T09:24:00.958Z,82.43
2023-04-16T09:25:00.955Z,83.01
2023-04-16T09:26:01.006Z,86.38
2023-04-16T09:27:00.897Z,93.05
2023-04-16T09:28:01.549Z,100.15
2023-04-16T09:29:00.877Z,106.71
2023-04-16T09:30:00.912Z,112.79
2023-04-16T09:31:00.868Z,119.86
2023-04-16T09:32:00.909Z,123.79
2023-04-16T09:33:00.916Z,126.62
2023-04-16T09:34:00.820Z,136.27
2023-04-16T09:35:00.928Z,143.44
2023-04-16T09:36:00.823Z,143.94
2023-04-16T09:37:00.858Z,151.27
2023-04-16T09:38:01.057Z,146.86
2023-04-16T09:39:00.843Z,138.20
2023-04-16T09:40:01.041Z,133.11
2023-04-16T09:41:00.964Z,130.60
2023-04-16T09:42:01.692Z,124.91
2023-04-16T09:43:00.924Z,124.25
2023-04-16T09:44:00.757Z,120.56
2023-04-16T09:45:02.640Z,121.62
2023-04-16T09:46:00.756Z,122.15
2023-04-16T09:47:00.689Z,124.16
2023-04-16T09:48:00.758Z,126.81
2023-04-16T09:49:00.730Z,124.07
2023-04-16T09:50:00.618Z,119.00
2023-04-16T09:51:00.639Z,120.12
2023-04-16T09:52:00.610Z,120.12
2023-04-16T09:53:00.603Z,120.56
2023-04-16T09:54:00.609Z,118.50
2023-04-16T09:55:00.583Z,118.50
2023-04-16T09:56:00.586Z,118.50
2023-04-16T09:57:00.560Z,115.13
2023-04-16T09:58:00.573Z,112.25
2023-04-16T09:59:00.535Z,116.34
2023-04-16T10:00:00.545Z,115.21
2023-04-16T10:01:00.544Z,112.86
2023-04-16T10:02:14.544Z,108.09
2023-04-16T10:03:00.597Z,105.15
2023-04-16T10:04:00.545Z,101.37
2023-04-16T10:05:00.507Z,97.62
2023-04-16T10:06:00.574Z,95.73
2023-04-16T10:07:00.453Z,94.53
2023-04-16T10:08:00.472Z,94.19
2023-04-16T10:09:00.454Z,98.61
2023-04-16T10:10:00.425Z,98.08
2023-04-16T10:11:00.419Z,96.60
2023-04-16T10:12:00.402Z,94.68
2023-04-16T10:13:00.406Z,93.68
2023-04-16T10:14:00.411Z,91.21
2023-04-16T10:15:00.400Z,88.68
2023-04-16T10:16:00.438Z,85.40
2023-04-16T10:17:00.472Z,82.60
2023-04-16T10:18:00.432Z,82.60
2023-04-16T10:19:00.649Z,81.95
2023-04-16T10:20:00.360Z,81.63
2023-04-16T10:21:00.363Z,80.83
2023-04-16T10:22:00.316Z,80.68
2023-04-16T10:23:00.351Z,79.14
2023-04-16T10:24:00.345Z,77.44
2023-04-16T10:25:00.381Z,76.10
2023-04-16T10:26:00.356Z,77.37
2023-04-16T10:27:00.340Z,78.03
2023-04-16T10:28:00.250Z,80.13
2023-04-16T10:29:00.237Z,82.03
2023-04-16T10:30:07.384Z,82.76
2023-04-16T10:31:00.431Z,82.03
2023-04-16T10:32:00.642Z,80.99
2023-04-16T10:33:00.779Z,80.29
2023-04-16T10:34:00.340Z,80.21
2023-04-16T10:35:00.186Z,81.47
2023-04-16T10:36:07.545Z,87.28
2023-04-16T10:37:00.239Z,88.68
2023-04-16T10:38:00.216Z,91.81
2023-04-16T10:39:00.143Z,90.61
2023-04-16T10:40:00.271Z,89.06
2023-04-16T10:41:00.158Z,87.47
2023-04-16T10:42:00.133Z,86.47
2023-04-16T10:43:00.332Z,84.96
2023-04-16T10:44:00.176Z,85.57
2023-04-16T10:45:00.110Z,88.11
2023-04-16T10:46:00.111Z,88.68
2023-04-16T10:47:00.138Z,90.81
2023-04-16T10:48:00.085Z,93.26
2023-04-16T10:49:00.128Z,92.84
2023-04-16T10:50:00.161Z,92.12
2023-04-16T10:51:00.100Z,90.02
2023-04-16T10:52:00.009Z,89.06
2023-04-16T10:53:00.031Z,88.40
2023-04-16T10:54:00.049Z,88.58
2023-04-16T10:55:00.080Z,92.22
2023-04-16T10:56:00.037Z,95.40
2023-04-16T10:57:01.664Z,95.99
2023-04-16T10:57:59.968Z,97.45
2023-04-16T10:58:59.967Z,96.71
2023-04-16T11:00:00.728Z,96.21
2023-04-16T11:00:59.938Z,98.72
2023-04-16T11:02:00.057Z,111.65
2023-04-16T11:03:00.021Z,118.33
2023-04-16T11:04:00.114Z,117.99
2023-04-16T11:05:00.003Z,116.10
2023-04-16T11:05:59.949Z,113.87
2023-04-16T11:06:59.918Z,106.23
2023-04-16T11:07:59.930Z,100.39
2023-04-16T11:08:59.886Z,95.22
2023-04-16T11:10:00.210Z,95.62
2023-04-16T11:10:59.864Z,94.09
2023-04-16T11:11:59.825Z,93.57
2023-04-16T11:12:59.890Z,93.36
2023-04-16T11:13:59.872Z,95.18
2023-04-16T11:15:00.137Z,95.54
2023-04-16T11:15:59.840Z,95.18
2023-04-16T11:16:59.814Z,91.61
2023-04-16T11:17:59.825Z,90.61
2023-04-16T11:18:59.774Z,90.22
2023-04-16T11:19:59.726Z,89.06
2023-04-16T11:20:59.793Z,86.56
2023-04-16T11:21:59.714Z,84.02
2023-04-16T11:22:59.712Z,84.27
2023-04-16T11:23:59.675Z,83.85
2023-04-16T11:24:59.723Z,82.60
2023-04-16T11:25:59.696Z,82.27
2023-04-16T11:26:59.667Z,80.99
2023-04-16T11:27:59.638Z,79.59
2023-04-16T11:28:59.646Z,79.14
2023-04-16T11:29:59.631Z,78.54
2023-04-16T11:30:59.730Z,78.69
2023-04-16T11:31:59.611Z,78.54
2023-04-16T11:32:59.679Z,77.08
2023-04-16T11:33:59.656Z,77.37
2023-04-16T11:34:59.588Z,76.66
2023-04-16T11:35:59.632Z,75.27
2023-04-16T11:36:59.580Z,74.13
2023-04-16T11:38:00.419Z,71.82
2023-04-16T11:38:59.629Z,69.77
2023-04-16T11:39:59.525Z,68.11
2023-04-16T11:40:59.539Z,66.91
2023-04-16T11:41:59.526Z,65.74
2023-04-16T11:42:59.885Z,64.42
2023-04-16T11:43:59.561Z,65.85
2023-04-16T11:44:59.565Z,66.43
2023-04-16T11:45:59.511Z,65.74
2023-04-16T11:46:59.512Z,65.33
2023-04-16T11:47:59.482Z,64.07
2023-04-16T11:48:59.485Z,63.34
2023-04-16T11:49:59.444Z,62.62
2023-04-16T11:50:59.476Z,61.92
2023-04-16T11:51:59.502Z,61.97
2023-04-16T11:52:59.457Z,62.39
2023-04-16T11:53:59.427Z,62.20
2023-04-16T11:54:59.398Z,61.42
2023-04-16T11:55:59.581Z,61.19
2023-04-16T11:56:59.687Z,60.79
2023-04-16T11:57:59.409Z,60.22
2023-04-16T11:58:59.328Z,59.57
2023-04-16T12:00:01.474Z,59.19
2023-04-16T12:00:59.328Z,59.02
2023-04-16T12:01:59.396Z,58.85
2023-04-16T12:02:59.530Z,58.61
2023-04-16T12:03:59.614Z,58.69
2023-04-16T12:04:59.300Z,58.65
2023-04-16T12:05:59.287Z,58.56
2023-04-16T12:06:59.338Z,58.81
2023-04-16T12:07:59.280Z,58.98
2023-04-16T12:08:59.260Z,58.69
2023-04-16T12:09:59.259Z,58.32
2023-04-16T12:10:59.266Z,57.55
2023-04-16T12:11:59.260Z,57.35
2023-04-16T12:12:59.341Z,57.19
2023-04-16T12:13:59.297Z,57.35
2023-04-16T12:14:59.208Z,56.96
2023-04-16T12:15:59.238Z,56.57
2023-04-16T12:16:59.261Z,55.89
2023-04-16T12:17:59.229Z,55.26
2023-04-16T12:18:59.356Z,54.82
2023-04-16T12:19:59.179Z,53.76
2023-04-16T12:20:59.225Z,53.89
2023-04-16T12:21:59.182Z,54.17
2023-04-16T12:22:59.251Z,54.42
2023-04-16T12:23:59.093Z,53.93
2023-04-16T12:24:59.121Z,53.86
2023-04-16T12:25:59.110Z,54.00
2023-04-16T12:26:59.087Z,54.32
2023-04-16T12:27:59.160Z,55.07
2023-04-16T12:28:59.047Z,56.04
2023-04-16T12:29:59.213Z,57.19
2023-04-16T12:30:59.056Z,57.83
2023-04-16T12:31:59.077Z,58.15
2023-04-16T12:32:59.227Z,58.36
2023-04-16T12:33:59.178Z,58.77
2023-04-16T12:34:59.084Z,59.15
2023-04-16T12:35:59.051Z,59.57
2023-04-16T12:36:59.073Z,60.75
2023-04-16T12:37:59.039Z,61.19
2023-04-16T12:38:59.043Z,61.42
2023-04-16T12:39:59.044Z,60.93
2023-04-16T12:40:58.968Z,60.70
2023-04-16T12:41:59.051Z,60.97
2023-04-16T12:42:58.960Z,60.53
2023-04-16T12:43:58.935Z,60.22
2023-04-16T12:44:58.949Z,60.09
2023-04-16T12:45:59.061Z,60.66
2023-04-16T12:46:58.883Z,61.69
2023-04-16T12:47:59.063Z,62.25
2023-04-16T12:48:59.096Z,62.16
2023-04-16T12:49:59.014Z,62.67
2023-04-16T12:50:59.209Z,62.86
2023-04-16T12:51:58.911Z,63.29
2023-04-16T12:52:58.907Z,63.83